木更津飛行場

2022/01/11

飛初 富山空港他 2022/1/7 frI

ブログの日付は戻りますが、いつぶりの飛行機旅になるのか・・ マイルの期限が迫ってきたので、消化をかねて東京まで飛ぶことにしました。調べてみると、2020年9月ぶりの搭乗です。

まずは、定点観測から

RJNT 070000Z 24002KT 9999 -SHSN FEW010 SCT035 BKN050 01/M01 Q1027

20220107_0rjnt_00ja6512

JA6512↑ AS350B3 AKF

20220107_0rjnt_01ja6516

JA6516↑ AS350B3 AKF

20220107_0rjnt_02ja6512

JA6512↓

RJNT 070100Z 23002KT 9999 -SHSN FEW010 SCT025 BKN045 02/M02 Q1027

20220107_0rjnt_03ja6516

JA6516↓

20220107_0rjnt_04terminal

ターミナルに行くと、110番の日広報で、立山くんがご挨拶。

20220107_0rjnt_05terminal

今年も桑原、桑原にお願い。

RJNT 070200Z VRB01KT 8000 -SHSN FEW010 SCT025 BKN030 02/M02 Q1027

20220107_0rjnt_06ja72an

小生の乗機がやってきました。

20220107_0rjnt_07ja72an

ANA315 RJTT-RJNT JA72AN B737-881

20220107_0rjnt_08ja72an

最近、ターニングパッドを使わずに、Uターンしてるのが多い。

20220107_0rjnt_09ja72an

さあて、行くよ。

この日当初は始発の312で予約を入れてあったのですが、ぬあんと、羽田が雪で前日の321が欠航。玉突きで欠航となってしまったので、お昼の316に乗ります。

20220107_1nh316_10boad

国土交通省から保安検査の強化が指示されていて、上着は脱いで、靴も検査されました。また3月から検査義務化が法制化されます。

20220107_1nh316_11ja72an

ウォッシュ、ウオッシュ

RJNT 070300Z VRB02KT 9999 -SHSN FEW010 SCT025 BKN030 02/M02 Q1027

###

20220107_1nh316_12mtfuji

雲の上にでると、早速富士山が見えます。

20220107_1nh316_13mtfuji

20220107_1nh316_14seat

機内サービスは、ソフトドリンク 毀滅の刃のカップ

20220107_1nh316_15rjtu

滑走路探検は、宇都宮飛行場

20220107_1nh316_16tsukuba

関東平野も南の方が雪が多い

20220107_1nh316_17tonerv

利根川を越えました。

20220107_1nh316_18rjtl

下総飛行場

20220107_1nh316_19narashino

習志野演習場

20220107_1nh316_20mtfuji

木更津飛行場が見えてきました。

20220107_1nh316_21rjtt

羽田を南の方から

20220107_1nh316_22rjtk

木更津飛行場上空でライトターン ファイナルへ

20220107_1nh316_23umihotaru

うみほたる

###

RJNT 070400Z 22003KT 6000 -SHSN FEW010 SCT030 BKN035 01/M01 Q1026

20220107_1nh316_24rjtt

ターミナル前沖止の模様

20220107_1nh316_25rjtt

東京国際空港に上陸

 

| | コメント (0)

2010/06/07

陸飛狩り 木更津飛行場 2010/6/6 sun

実に7年ぶりに木更津に出かけた。と、言うより仕事帰りに寄り道と言ったところか。なので、午前中のみで、体験搭乗とか無料滑走体験等は、後ろ髪曳かれ隊にまかせた。

20100605_rjtk_a00

今日も朝から快晴の晴天、当日飛来の外来機がやってきます。オーバーヘッドアプローチで開場待ちの観客にPRしたC1

宇宙31 402SQ C1 18-1031

20100605_rjtk_a01

海保の新鋭機Dash8も参加します。

JA722A JCG DH83

20100605_rjtk_a02

こちらはRW20のオーバーヘッドアプローチで、翼振り振りやってきた海自のYS

おきゃん03 205ATS YS11T JM6903

20100605_rjtk_a03

陸自の基地祭ですから、当然式典はあります。まずは隊員入場から。

20100605_rjtk_a04

日の丸もエプロンを行進して、草地の式典会場に入場します。

20100605_rjtk_a05

式典の終了が近づくと、偵察航空隊の固定翼機から離陸して、観閲飛行に向います。

KISARAZU FLT 連絡偵察飛行隊 LR2 JG3052

20100605_rjtk_a06

引き続き各飛行隊から2,3機で選抜されたヘリコプターが離陸します

KISARAZU FLT(AKAGI) 105SQ CH47J

20100605_rjtk_a07

編隊長機のチヌークに続いて特別輸送ヘリコプター隊が2機で航過

STH EC255LP JG1022 JG1023

20100605_rjtk_a08

鳥取?は固定翼3羽 

20100605_rjtk_a09

航過飛行を終え、開場正面を通過して着陸となります。

20100605_rjtk_a10

長機につづいてブレイクしていきます。

20100605_rjtk_a11

こちらは第102飛行隊の OH6とUH60

20100605_rjtk_a12

チヌークが続々続いて、これは第104飛行隊(AZUMA)の3機

さて、さて、続きが続きますでしょうか? まずは、ここまで

| | コメント (0) | トラックバック (0)

その他のカテゴリー

BI Boading record aircraft Boading record ship FlightTracking lighthouse NAVAIDS NAVY RJNT LOG SKY MASSAGE US NAVY USMC うみ おか そら てつ アクシデント エアロック チーム室屋 ヘリポート 三沢飛行場 上五島空港 下地島空港 下総飛行場 与論空港 与那国空港 中標津空港 中部国際空港 久米島空港 五島福江空港 仙台空港 伊江島空港 但馬空港 佐賀空港 入間飛行場 八尾空港 八戸飛行場 出雲空港 函館空港 利尻空港 北九州空港 北大東空港 十勝飛行場 千歳飛行場 南大東空港 博物館 厚木飛行場 名古屋飛行場 喜界空港 嘉手納飛行場 場外 壱岐空港 多良間空港 大分空港 大村飛行場 大湊飛行場 大阪国際空港 大館能代空港 天草空港 奄美空港 奥尻空港 宇部山口空港 宇都宮飛行場 宮古空港 宮崎空港 富山空港 対馬空港 小松島飛行場 小松飛行場 屋久島空港 山形空港 岐阜飛行場 岡南飛行場 岡山空港 岩国飛行場 帯広空港 広島空港 広島西飛行場 庄内空港 徳之島空港 徳島飛行場 慶良間空港 成田国際空港 新島空港 新潟空港 新田原飛行場 旭川空港 旭川飛行場 明野飛行場 普天間飛行場 木更津飛行場 札幌飛行場 東京国際空港 松山空港 松島飛行場 松本空港 枕崎飛行場 横田飛行場 沖永良部空港 波照間空港 浜松飛行場 海上保安庁 海上自衛隊 海外 熊本空港 百里飛行場 相馬原飛行場 石垣空港 石見空港 礼文空港 神戸空港 神津島空港 福井空港 福岡空港 福島空港 秋田空港 稚内空港 種子島空港 空撮 立川飛行場 竜ヶ崎飛行場 築城飛行場 粟国空港 美保飛行場 能登空港 舞鶴飛行場 航空自衛隊 芦屋飛行場 花巻空港 調布飛行場 警務消防 那覇空港 釧路空港 長崎空港 関西国際空港 陸上自衛隊 隠岐空港 霞ヶ浦飛行場 霞目飛行場 青森空港 静岡空港 静浜飛行場 飛行場跡 飛行船 鹿児島空港 鹿屋飛行場